KSUS/SUS METAR and TAF weather

Enter ICAO airport designator
Station Type Date Time Source
KSUS METAR 2022/06/25 21:54 UTC NOAA

KSUS 252154Z 17005KT 6SM HZ CLR 36/22 A2989 RMK AO2 SLP110 T03610222


Station Type Date Time Source
KSUS Decoded METAR 2022/06/25 21:54 UTC NOAA

SPIRIT OF ST. LOUIS AIRPORT , MO, United States (KSUS) 38-39N 090-39W 141M
Jun 25, 2022 - 05:54 PM EDT / 2022.06.25 2154 UTC
Wind: from the S (170 degrees) at 6 MPH (5 KT):0
Visibility: 6 mile(s):0
Sky conditions: clear
Weather: haze
Temperature: 97.0 F (36.1 C)
Heat index: 105.6 F (40.9 C):1
Dew Point: 72.0 F (22.2 C)
Relative Humidity: 44%
Pressure (altimeter): 29.89 in. Hg (1012 hPa)
ob: KSUS 252154Z 17005KT 6SM HZ CLR 36/22 A2989 RMK AO2 SLP110 T03610222
cycle: 22

Station Type Date Time Source
KSUS TAF 2022/06/25 18:22 UTC NOAA

TAF KSUS 251720Z 2518/2618 20008KT P6SM FEW250
FM260400 VRB05KT P6SM -SHRA VCTS SCT050CB
FM261100 32010KT P6SM BKN050

Example: see airport list